ITY1412 LIMF-LIRF
Flight info
| Callsign | ITY1412 |
|---|---|
| Flight time | N/A |
| Altitude | 19000 |
| Route | LAGEN L50 ANAKI/N0428F310 DCT BAKRO DCT ELB/N0430F320 DCT ELKAP |
| Aircraft | A320/M-SDE3FGHIRWY/LB1 |
Departure
| Time | 2026-04-30 18:42 |
|---|---|
| Airport | Turin Airport (LIMF) |
Arrival
| Time | N/A |
|---|---|
| Airport | Rome–Fiumicino Leonardo da Vinci International Airport (LIRF) |
| Time | Latitude | Longitude | Altitude | Speed | Heading |
|---|---|---|---|---|---|
| 2026-04-30 18:14 | 45.19063 | 7.64499 | 986 ft | 0 kts | 257° |
| 2026-04-30 18:32 | 45.19066 | 7.64519 | 986 ft | 4 kts | 257° |
| 2026-04-30 18:33 | 45.19072 | 7.64556 | 989 ft | 4 kts | 257° |
| 2026-04-30 18:33 | 45.19087 | 7.64630 | 988 ft | 4 kts | 243° |
| 2026-04-30 18:33 | 45.19101 | 7.64657 | 995 ft | 4 kts | 199° |
| 2026-04-30 18:34 | 45.19107 | 7.64660 | 990 ft | 1 kts | 182° |
| 2026-04-30 18:39 | 45.19072 | 7.64658 | 985 ft | 11 kts | 182° |
| 2026-04-30 18:39 | 45.18976 | 7.64652 | 989 ft | 16 kts | 182° |
| 2026-04-30 18:39 | 45.18869 | 7.64644 | 985 ft | 14 kts | 183° |
| 2026-04-30 18:39 | 45.18776 | 7.64637 | 985 ft | 13 kts | 182° |
| 2026-04-30 18:40 | 45.18706 | 7.64633 | 988 ft | 8 kts | 182° |
| 2026-04-30 18:40 | 45.18658 | 7.64642 | 986 ft | 1 kts | 167° |
| 2026-04-30 18:40 | 45.18649 | 7.64645 | 985 ft | 0 kts | 165° |
| 2026-04-30 18:41 | 45.18640 | 7.64655 | 994 ft | 5 kts | 139° |
| 2026-04-30 18:41 | 45.18621 | 7.64763 | 982 ft | 18 kts | 81° |
| 2026-04-30 18:41 | 45.18696 | 7.64874 | 986 ft | 16 kts | 3° |
| 2026-04-30 18:41 | 45.19020 | 7.64893 | 982 ft | 89 kts | 1° |
| 2026-04-30 18:42 | 45.19888 | 7.64950 | 981 ft | 158 kts | 2° |
| 2026-04-30 18:42 | 45.22078 | 7.65157 | 2498 ft | 156 kts | 4° |
| 2026-04-30 18:42 | 45.23240 | 7.65242 | 2865 ft | 184 kts | 1° |
| 2026-04-30 18:45 | 45.37097 | 7.63249 | 10750 ft | 220 kts | 18° |
| 2026-04-30 18:45 | 45.38417 | 7.64334 | 11519 ft | 223 kts | 44° |
| 2026-04-30 18:45 | 45.39281 | 7.66158 | 12281 ft | 226 kts | 69° |
| 2026-04-30 18:46 | 45.39514 | 7.68379 | 12992 ft | 232 kts | 94° |
| 2026-04-30 18:46 | 45.39051 | 7.70596 | 13703 ft | 239 kts | 118° |
| 2026-04-30 18:46 | 45.37956 | 7.72399 | 14324 ft | 246 kts | 143° |
| 2026-04-30 18:46 | 45.36403 | 7.73451 | 14935 ft | 251 kts | 167° |
| 2026-04-30 18:47 | 45.34659 | 7.73549 | 15569 ft | 254 kts | 191° |
| 2026-04-30 18:47 | 45.33010 | 7.72666 | 16184 ft | 256 kts | 214° |
| 2026-04-30 18:47 | 45.31718 | 7.70944 | 16811 ft | 256 kts | 237° |
| 2026-04-30 18:47 | 45.30927 | 7.68736 | 17445 ft | 253 kts | 255° |